Time;durP1;ratioP1;P1;durP2;ratioP2;P2;SDS_P1;SDS_P2;PMS_P1;PMS_P2;Temp;Humidity;BMP_temperature;BMP_pressure;BME280_temperature;BME280_humidity;BME280_pressure;Samples;Min_cycle;Max_cycle;Signal;HPM_P1;HPM_P2
2023/11/28 00:02:52;;;;;;;81.30;38.70;;;;;;;-4.45;83.86;98326.77;218725;1254;139869;-68
2023/11/28 00:08:00;;;;;;;95.30;45.50;;;;;;;-4.51;83.94;98326.20;218620;1258;140691;-64
2023/11/28 00:13:06;;;;;;;82.40;44.10;;;;;;;-4.56;83.86;98322.66;219686;1257;139945;-66
2023/11/28 00:18:11;;;;;;;85.50;43.60;;;;;;;-4.61;83.95;98317.83;219099;1257;140078;-64
2023/11/28 00:23:16;;;;;;;85.90;43.70;;;;;;;-4.64;83.93;98311.58;219001;1258;142313;-68
2023/11/28 00:28:21;;;;;;;76.60;40.70;;;;;;;-4.68;84.05;98305.78;218250;1254;140222;-66
2023/11/28 00:33:26;;;;;;;96.20;45.20;;;;;;;-4.70;84.01;98304.69;218351;1258;139962;-65
2023/11/28 00:38:30;;;;;;;92.00;43.90;;;;;;;-4.68;84.42;98302.08;219649;1255;140763;-68
2023/11/28 00:43:35;;;;;;;79.20;38.30;;;;;;;-4.63;84.68;98296.04;218088;1254;139942;-67
2023/11/28 00:48:40;;;;;;;105.10;44.60;;;;;;;-4.62;84.65;98290.92;219292;1254;141189;-69
2023/11/28 00:53:43;;;;;;;92.20;42.80;;;;;;;-4.60;84.73;98291.89;220269;1254;141798;-67
2023/11/28 00:58:48;;;;;;;104.80;48.60;;;;;;;-4.58;84.62;98290.78;219057;1256;141060;-70
2023/11/28 01:03:53;;;;;;;93.20;47.20;;;;;;;-4.58;84.63;98280.54;218681;1254;141269;-68
2023/11/28 01:08:58;;;;;;;91.90;43.70;;;;;;;-4.58;84.59;98267.19;217995;1259;139854;-67
2023/11/28 01:14:04;;;;;;;103.00;50.20;;;;;;;-4.65;84.30;98264.08;218757;1259;141004;-66
2023/11/28 01:19:09;;;;;;;91.10;42.30;;;;;;;-4.69;84.50;98261.27;218740;1259;141075;-68
2023/11/28 01:24:15;;;;;;;103.50;43.30;;;;;;;-4.73;84.37;98254.08;218096;1259;162432;-67
2023/11/28 01:29:20;;;;;;;88.00;43.10;;;;;;;-4.80;84.35;98255.84;218632;1258;140528;-70
2023/11/28 01:34:24;;;;;;;85.80;41.30;;;;;;;-4.85;84.33;98255.39;218586;1259;140079;-69
2023/11/28 01:39:28;;;;;;;90.00;42.90;;;;;;;-4.90;84.19;98256.67;218118;1258;140920;-66
2023/11/28 01:44:34;;;;;;;97.00;48.20;;;;;;;-4.95;84.27;98248.19;218638;1254;139877;-67
2023/11/28 01:49:41;;;;;;;100.20;43.10;;;;;;;-4.96;84.40;98246.68;218687;1258;140275;-69
2023/11/28 01:54:46;;;;;;;78.40;39.20;;;;;;;-4.97;84.51;98236.39;217767;1259;141363;-67
2023/11/28 01:59:51;;;;;;;76.80;39.50;;;;;;;-5.05;84.25;98233.41;218104;1256;140049;-66
2023/11/28 02:04:56;;;;;;;104.70;45.80;;;;;;;-5.09;84.48;98225.53;219157;1254;141236;-66
2023/11/28 02:10:00;;;;;;;81.40;41.90;;;;;;;-5.08;84.75;98216.23;217902;1259;140114;-66
2023/11/28 02:15:05;;;;;;;84.70;38.70;;;;;;;-5.05;84.84;98203.17;219548;1254;140428;-67
2023/11/28 02:20:10;;;;;;;89.40;40.50;;;;;;;-5.04;84.74;98196.83;217757;1260;140879;-67
2023/11/28 02:25:15;;;;;;;84.40;39.20;;;;;;;-5.02;84.86;98193.77;217702;1255;140162;-67
2023/11/28 02:30:20;;;;;;;59.60;31.80;;;;;;;-4.98;85.16;98190.17;218845;1258;139807;-68
2023/11/28 02:35:24;;;;;;;75.30;35.50;;;;;;;-4.87;85.85;98183.51;217748;1255;140100;-67
2023/11/28 02:40:30;;;;;;;112.70;52.20;;;;;;;-4.79;85.79;98181.23;218332;1256;140284;-66
2023/11/28 02:45:36;;;;;;;78.30;35.60;;;;;;;-4.73;85.77;98170.63;218784;1258;141002;-68
2023/11/28 02:50:41;;;;;;;63.20;29.80;;;;;;;-4.65;86.14;98157.12;220877;1253;140506;-68
2023/11/28 02:55:46;;;;;;;82.00;34.40;;;;;;;-4.58;86.01;98151.41;220643;1254;140579;-67
2023/11/28 03:00:50;;;;;;;66.70;30.10;;;;;;;-4.52;85.99;98136.48;220702;1254;140604;-69
2023/11/28 03:05:55;;;;;;;60.60;30.00;;;;;;;-4.49;85.78;98127.86;220126;1257;141946;-68
2023/11/28 03:11:01;;;;;;;67.90;29.90;;;;;;;-4.44;85.66;98126.02;217940;1256;139768;-66
2023/11/28 03:16:06;;;;;;;71.80;29.50;;;;;;;-4.38;85.89;98124.98;219023;1257;140327;-66
2023/11/28 03:21:11;;;;;;;58.60;26.60;;;;;;;-4.33;86.01;98118.34;218943;1254;140360;-66
2023/11/28 03:26:17;;;;;;;58.30;27.70;;;;;;;-4.33;85.82;98114.45;218156;1254;140272;-67
2023/11/28 03:31:21;;;;;;;55.70;25.60;;;;;;;-4.34;85.83;98103.11;218041;1254;140162;-67
2023/11/28 03:36:26;;;;;;;44.10;23.20;;;;;;;-4.39;85.64;98097.00;218066;1254;140167;-67
2023/11/28 03:41:30;;;;;;;47.60;25.30;;;;;;;-4.43;85.61;98103.58;218175;1257;139900;-68
2023/11/28 03:46:34;;;;;;;42.00;22.90;;;;;;;-4.44;85.80;98090.45;218392;1254;140114;-70
2023/11/28 03:51:39;;;;;;;46.00;24.30;;;;;;;-4.43;86.10;98083.26;218143;1257;140272;-67
2023/11/28 03:56:44;;;;;;;45.70;26.00;;;;;;;-4.39;86.20;98079.39;218255;1254;140887;-72
2023/11/28 04:01:50;;;;;;;59.60;29.90;;;;;;;-4.36;86.46;98075.39;218572;1255;142045;-73
2023/11/28 04:06:56;;;;;;;52.70;24.20;;;;;;;-4.30;86.78;98068.05;218090;1254;140311;-69
2023/11/28 04:12:00;;;;;;;54.80;26.80;;;;;;;-4.25;86.44;98060.70;219159;1254;142224;-72
2023/11/28 04:17:05;;;;;;;46.40;23.30;;;;;;;-4.21;86.39;98056.52;218240;1254;140412;-75
2023/11/28 04:22:10;;;;;;;51.60;24.90;;;;;;;-4.19;86.53;98052.81;218274;1253;141090;-74
2023/11/28 04:27:17;;;;;;;53.40;25.30;;;;;;;-4.16;86.69;98056.27;218773;1254;140148;-74
2023/11/28 04:32:24;;;;;;;44.60;22.90;;;;;;;-4.13;86.59;98050.70;219515;1253;140735;-70
2023/11/28 04:37:29;;;;;;;37.60;21.80;;;;;;;-4.11;86.50;98048.95;220369;1254;140276;-69
2023/11/28 04:42:33;;;;;;;50.10;21.50;;;;;;;-4.08;86.61;98051.55;218869;1257;140619;-73
2023/11/28 04:47:39;;;;;;;48.10;24.20;;;;;;;-4.04;86.47;98045.84;219474;1254;140291;-67
2023/11/28 04:52:44;;;;;;;39.90;22.20;;;;;;;-4.01;86.25;98033.87;220821;1254;141701;-69
2023/11/28 04:57:48;;;;;;;47.00;20.00;;;;;;;-3.97;86.38;98028.36;220839;1253;141877;-68
2023/11/28 05:02:54;;;;;;;40.70;21.20;;;;;;;-3.93;86.30;98020.11;220822;1253;141481;-66
2023/11/28 05:07:59;;;;;;;47.70;21.40;;;;;;;-3.90;86.17;98014.10;218517;1253;140493;-65
2023/11/28 05:13:04;;;;;;;34.40;17.80;;;;;;;-3.88;86.05;98013.20;220487;1254;141923;-66
2023/11/28 05:18:09;;;;;;;37.50;19.40;;;;;;;-3.87;86.01;98015.86;219310;1253;141650;-67
2023/11/28 05:23:14;;;;;;;52.30;23.90;;;;;;;-3.86;86.05;98011.35;218958;1254;142043;-67
2023/11/28 05:28:19;;;;;;;45.60;23.10;;;;;;;-3.83;85.96;98014.83;218518;1254;140057;-66
2023/11/28 05:33:23;;;;;;;40.30;17.70;;;;;;;-3.82;85.96;98015.76;219113;1254;140476;-67
2023/11/28 05:38:28;;;;;;;36.80;22.80;;;;;;;-3.83;86.03;98016.87;218686;1254;140614;-66
2023/11/28 05:43:32;;;;;;;45.40;22.50;;;;;;;-3.81;86.12;98009.69;218376;1255;140126;-66
2023/11/28 05:48:38;;;;;;;53.00;26.60;;;;;;;-3.79;85.97;98004.25;217984;1254;140220;-66
2023/11/28 05:53:42;;;;;;;48.50;22.80;;;;;;;-3.77;86.00;98001.77;218322;1254;140542;-65
2023/11/28 05:58:47;;;;;;;45.50;22.30;;;;;;;-3.76;86.15;98007.45;217659;1254;140119;-65
2023/11/28 06:03:52;;;;;;;52.70;22.30;;;;;;;-3.77;86.10;98008.00;218435;1254;140151;-66
2023/11/28 06:08:58;;;;;;;45.30;19.40;;;;;;;-3.77;86.24;98007.67;218153;1254;140282;-65
2023/11/28 06:14:03;;;;;;;65.50;26.80;;;;;;;-3.78;86.21;98010.92;219068;1254;152787;-66
2023/11/28 06:19:09;;;;;;;54.50;27.80;;;;;;;-3.78;86.09;98018.01;218951;1255;139893;-63
2023/11/28 06:24:15;;;;;;;60.00;33.10;;;;;;;-3.76;86.22;98023.39;217944;1254;141705;-66
2023/11/28 06:29:20;;;;;;;49.60;25.00;;;;;;;-3.75;86.13;98029.77;218410;1254;140072;-69
2023/11/28 06:34:27;;;;;;;43.30;21.80;;;;;;;-3.71;86.19;98026.58;220008;1259;141255;-65
2023/11/28 06:39:33;;;;;;;44.80;23.50;;;;;;;-3.67;86.06;98024.95;219673;1253;140306;-66
2023/11/28 06:44:37;;;;;;;56.50;23.30;;;;;;;-3.63;86.02;98029.59;220699;1253;140516;-66
2023/11/28 06:49:45;;;;;;;53.90;28.60;;;;;;;-3.59;85.78;98027.39;220809;1253;140165;-66
2023/11/28 06:54:50;;;;;;;58.40;26.50;;;;;;;-3.55;85.80;98030.16;218220;1256;140217;-66
2023/11/28 06:59:56;;;;;;;52.40;23.90;;;;;;;-3.49;85.79;98033.66;219336;1253;140543;-65
2023/11/28 07:05:01;;;;;;;46.20;23.50;;;;;;;-3.43;85.64;98029.59;219709;1253;140602;-65
2023/11/28 07:10:08;;;;;;;45.50;23.00;;;;;;;-3.38;85.71;98030.39;218018;1257;140164;-65
2023/11/28 07:15:13;;;;;;;46.80;24.70;;;;;;;-3.35;85.83;98034.02;219439;1254;140693;-65
2023/11/28 07:20:18;;;;;;;43.70;25.80;;;;;;;-3.31;85.74;98041.66;217923;1253;141159;-65
2023/11/28 07:25:23;;;;;;;43.00;21.50;;;;;;;-3.28;85.74;98036.63;218139;1253;140234;-65
2023/11/28 07:30:28;;;;;;;39.30;22.30;;;;;;;-3.24;85.83;98034.58;218625;1253;140429;-66
2023/11/28 07:35:33;;;;;;;48.70;23.40;;;;;;;-3.22;85.73;98037.70;217960;1253;140488;-65
2023/11/28 07:40:40;;;;;;;43.40;20.90;;;;;;;-3.18;85.54;98036.40;219011;1253;140229;-65
2023/11/28 07:45:45;;;;;;;52.40;25.60;;;;;;;-3.14;85.52;98033.63;218575;1253;139770;-65
2023/11/28 07:50:50;;;;;;;46.50;23.80;;;;;;;-3.09;85.37;98033.36;219130;1253;140920;-70
2023/11/28 07:55:55;;;;;;;40.60;23.30;;;;;;;-3.01;85.48;98043.89;217455;1254;826447;-65
2023/11/28 08:01:00;;;;;;;42.60;19.40;;;;;;;-2.95;85.32;98046.59;218279;1253;139674;-68
2023/11/28 08:06:06;;;;;;;40.40;22.90;;;;;;;-2.90;85.09;98048.07;219340;1254;140358;-71
2023/11/28 08:11:14;;;;;;;43.40;24.30;;;;;;;-2.86;85.17;98038.12;218345;1253;139971;-67
2023/11/28 08:16:19;;;;;;;42.20;22.40;;;;;;;-2.82;84.97;98036.23;218668;1254;142988;-67
2023/11/28 08:21:25;;;;;;;43.80;24.10;;;;;;;-2.76;84.94;98035.17;218577;1256;140735;-71
2023/11/28 08:26:30;;;;;;;56.30;24.40;;;;;;;-2.69;84.84;98033.80;218274;1253;140200;-70
2023/11/28 08:31:36;;;;;;;45.40;21.90;;;;;;;-2.64;84.77;98032.63;220245;1254;141973;-71
2023/11/28 08:36:44;;;;;;;44.80;24.70;;;;;;;-2.57;84.71;98038.54;220770;1253;140685;-70
2023/11/28 08:41:48;;;;;;;40.30;21.60;;;;;;;-2.50;84.57;98034.61;218615;1253;140157;-68
2023/11/28 08:46:53;;;;;;;46.00;23.60;;;;;;;-2.44;84.47;98036.11;219346;1254;140030;-69
2023/11/28 08:51:58;;;;;;;47.50;22.40;;;;;;;-2.39;84.42;98036.73;220019;1256;140702;-72
2023/11/28 08:57:06;;;;;;;42.90;25.20;;;;;;;-2.35;84.56;98029.84;218841;1253;140923;-68
2023/11/28 09:02:11;;;;;;;42.50;25.60;;;;;;;-2.29;84.52;98026.42;218795;1253;141406;-71
2023/11/28 09:07:17;;;;;;;49.50;25.20;;;;;;;-2.27;84.29;98026.23;218767;1253;141518;-75
2023/11/28 09:12:22;;;;;;;36.80;19.20;;;;;;;-2.25;84.17;98025.92;218789;1253;140020;-69
2023/11/28 09:17:27;;;;;;;43.50;24.90;;;;;;;-2.22;84.28;98018.55;219895;1253;142222;-69
2023/11/28 09:22:33;;;;;;;46.70;23.30;;;;;;;-2.19;84.23;98017.48;218389;1253;140092;-68
2023/11/28 09:27:38;;;;;;;43.80;21.50;;;;;;;-2.16;84.32;98015.48;218587;1253;139950;-66
2023/11/28 09:32:43;;;;;;;49.80;25.60;;;;;;;-2.12;84.10;98006.64;218862;1253;141039;-65
2023/11/28 09:37:49;;;;;;;40.30;22.20;;;;;;;-2.08;84.11;98004.08;218376;1254;140876;-66
2023/11/28 09:42:56;;;;;;;53.00;21.30;;;;;;;-2.03;84.11;97998.00;218623;1256;140279;-70
2023/11/28 09:48:08;;;;;;;41.20;20.80;;;;;;;-1.99;83.90;97994.40;218171;1257;139931;-70
2023/11/28 09:53:23;;;;;;;48.20;23.00;;;;;;;-1.94;83.88;97988.19;218296;1253;140035;-67
2023/11/28 09:58:36;;;;;;;43.90;23.80;;;;;;;-1.91;83.69;97978.39;218165;1253;139795;-67
2023/11/28 10:03:41;;;;;;;39.80;21.50;;;;;;;-1.83;83.62;97969.52;219122;1253;139841;-69
2023/11/28 10:08:53;;;;;;;46.90;23.90;;;;;;;-1.79;83.51;97963.16;218612;1255;140079;-69
2023/11/28 10:13:59;;;;;;;41.10;19.50;;;;;;;-1.74;83.47;97956.50;218917;1253;141370;-68
2023/11/28 10:19:06;;;;;;;38.30;19.60;;;;;;;-1.72;83.24;97948.11;219283;1253;237575;-70
2023/11/28 10:24:12;;;;;;;34.30;19.90;;;;;;;-1.71;82.90;97946.98;218964;1253;141731;-68
2023/11/28 10:29:17;;;;;;;34.40;16.60;;;;;;;-1.67;82.88;97942.85;219449;1253;141200;-68
2023/11/28 10:34:23;;;;;;;41.20;18.50;;;;;;;-1.67;82.42;97941.69;218345;1254;141275;-68
2023/11/28 10:39:29;;;;;;;42.20;24.70;;;;;;;-1.63;82.51;97944.91;220000;1254;141560;-69
2023/11/28 10:44:36;;;;;;;46.40;24.00;;;;;;;-1.56;82.27;97951.23;218599;1253;140064;-70
2023/11/28 10:49:41;;;;;;;41.00;21.70;;;;;;;-1.50;82.50;97949.35;218651;1253;140317;-68
2023/11/28 10:54:53;;;;;;;47.80;21.20;;;;;;;-1.48;82.23;97946.75;218665;1257;141080;-70
2023/11/28 11:00:02;;;;;;;39.90;20.60;;;;;;;-1.47;82.19;97943.81;218581;1253;140268;-68
2023/11/28 11:05:08;;;;;;;35.40;18.50;;;;;;;-1.47;82.21;97943.33;219004;1253;139630;-67
2023/11/28 11:10:12;;;;;;;38.30;18.20;;;;;;;-1.47;82.32;97942.77;218660;1253;140009;-68
2023/11/28 11:15:55;;;;;;;52.00;27.20;;;;;;;-1.50;81.75;97943.16;218725;1253;140008;-70
2023/11/28 11:21:18;;;;;;;43.50;22.10;;;;;;;-1.53;82.26;97946.40;218567;1253;140233;-70
2023/11/28 11:26:38;;;;;;;47.90;23.50;;;;;;;-1.55;82.18;97948.58;218525;1253;139974;-70
2023/11/28 11:31:42;;;;;;;52.40;25.70;;;;;;;-1.58;82.22;97952.27;217990;1253;140274;-71
2023/11/28 11:37:05;;;;;;;48.20;26.70;;;;;;;-1.61;82.33;97947.52;218300;1253;140333;-68
2023/11/28 11:42:19;;;;;;;50.40;23.80;;;;;;;-1.63;82.25;97949.73;218488;1253;139896;-69
2023/11/28 11:47:31;;;;;;;44.50;23.30;;;;;;;-1.66;82.15;97950.94;218859;1257;140069;-70
2023/11/28 11:52:36;;;;;;;43.80;21.70;;;;;;;-1.64;82.34;97959.98;218134;1253;140848;-70
2023/11/28 11:57:46;;;;;;;38.50;18.70;;;;;;;-1.64;82.36;97958.73;218397;1253;140514;-68
2023/11/28 12:02:55;;;;;;;47.00;23.40;;;;;;;-1.64;82.18;97959.33;218661;1253;221919;-72
2023/11/28 12:08:02;;;;;;;42.00;22.20;;;;;;;-1.63;82.33;97955.04;218596;1253;139861;-70
2023/11/28 12:13:10;;;;;;;39.40;22.00;;;;;;;-1.65;82.10;97950.41;218695;1257;139979;-66
2023/11/28 12:18:16;;;;;;;46.70;21.50;;;;;;;-1.65;82.32;97944.14;219124;1256;140584;-67
2023/11/28 12:23:23;;;;;;;42.40;21.50;;;;;;;-1.63;82.10;97942.38;218558;1253;139557;-66
2023/11/28 12:28:27;;;;;;;30.30;17.70;;;;;;;-1.65;82.13;97937.34;220382;1253;140782;-68
2023/11/28 12:33:34;;;;;;;39.50;21.40;;;;;;;-1.65;81.85;97942.82;218880;1253;140518;-69
2023/11/28 12:38:40;;;;;;;41.90;21.30;;;;;;;-1.62;81.96;97945.55;219154;1253;140155;-71
2023/11/28 12:43:45;;;;;;;51.60;23.80;;;;;;;-1.61;81.96;97950.38;219256;1253;140031;-74
2023/11/28 12:48:51;;;;;;;36.40;23.30;;;;;;;-1.61;81.69;97954.60;218414;1253;140004;-71
2023/11/28 12:54:13;;;;;;;45.00;24.30;;;;;;;-1.61;82.10;97954.96;219655;1256;140435;-67
2023/11/28 12:59:21;;;;;;;46.10;27.40;;;;;;;-1.59;81.96;97959.07;218801;1253;140757;-67
2023/11/28 13:04:25;;;;;;;45.00;22.90;;;;;;;-1.55;82.00;97959.83;218863;1254;139826;-68
2023/11/28 13:09:35;;;;;;;39.30;21.30;;;;;;;-1.50;82.04;97962.26;218437;1253;139623;-68
2023/11/28 13:14:40;;;;;;;40.70;23.50;;;;;;;-1.48;81.75;97961.17;218281;1253;139893;-67
2023/11/28 13:19:46;;;;;;;47.00;23.80;;;;;;;-1.51;81.84;97957.11;218037;1257;141064;-72
2023/11/28 13:24:53;;;;;;;49.00;22.00;;;;;;;-1.54;81.82;97959.95;218153;1253;140823;-74
2023/11/28 13:29:59;;;;;;;43.00;22.40;;;;;;;-1.57;81.87;97958.59;219259;1253;139795;-74
2023/11/28 13:35:07;;;;;;;36.80;18.80;;;;;;;-1.62;81.90;97956.89;218127;1253;139953;-74
2023/11/28 13:40:14;;;;;;;43.40;20.80;;;;;;;-1.68;81.68;97962.17;218953;1255;140044;-73
2023/11/28 13:45:19;;;;;;;48.80;21.10;;;;;;;-1.74;81.73;97972.09;218930;1253;139746;-72
2023/11/28 13:50:25;;;;;;;44.40;19.90;;;;;;;-1.78;81.83;97978.04;218725;1253;139825;-72
2023/11/28 13:55:31;;;;;;;40.80;20.60;;;;;;;-1.82;81.86;97982.73;218458;1257;140649;-69
2023/11/28 14:00:36;;;;;;;43.10;24.30;;;;;;;-1.85;81.73;97996.08;218485;1253;140154;-72
2023/11/28 14:05:42;;;;;;;42.80;20.40;;;;;;;-1.90;81.77;98006.12;219124;1257;140157;-69
2023/11/28 14:10:47;;;;;;;44.30;22.60;;;;;;;-1.95;81.60;98010.11;218788;1253;139850;-72
2023/11/28 14:15:52;;;;;;;45.40;23.10;;;;;;;-2.01;81.56;98007.52;218778;1257;140334;-71
2023/11/28 14:20:57;;;;;;;44.10;20.70;;;;;;;-2.07;81.75;98011.88;218314;1254;141400;-68
2023/11/28 14:26:01;;;;;;;36.10;18.90;;;;;;;-2.09;81.69;98018.14;219022;1258;140418;-67
2023/11/28 14:31:07;;;;;;;51.50;23.60;;;;;;;-2.08;81.80;98020.59;218281;1254;139908;-67
2023/11/28 14:36:12;;;;;;;41.00;21.20;;;;;;;-2.06;81.66;98025.54;220690;1253;141100;-67
2023/11/28 14:41:16;;;;;;;39.20;20.20;;;;;;;-2.08;81.41;98026.17;219162;1258;141013;-66
2023/11/28 14:46:21;;;;;;;38.80;21.10;;;;;;;-2.11;81.36;98026.89;220393;1253;141214;-71
2023/11/28 14:51:29;;;;;;;41.80;19.90;;;;;;;-2.15;81.32;98036.56;218680;1253;140204;-72
2023/11/28 14:56:39;;;;;;;37.60;21.20;;;;;;;-2.16;81.29;98042.66;219259;1253;149661;-68
2023/11/28 15:01:46;;;;;;;36.00;19.10;;;;;;;-2.16;81.38;98046.20;219637;1253;140612;-69
2023/11/28 15:06:51;;;;;;;37.50;18.70;;;;;;;-2.17;81.44;98049.94;218022;1257;140042;-67
2023/11/28 15:11:57;;;;;;;36.90;19.30;;;;;;;-2.19;81.46;98054.38;218206;1253;140179;-67
2023/11/28 15:17:03;;;;;;;38.20;19.60;;;;;;;-2.22;81.31;98056.82;218081;1253;140221;-70
2023/11/28 15:22:08;;;;;;;44.10;20.80;;;;;;;-2.24;81.26;98059.45;218962;1258;140212;-68
2023/11/28 15:27:12;;;;;;;36.00;18.40;;;;;;;-2.27;81.27;98067.02;218484;1253;141864;-66
2023/11/28 15:32:17;;;;;;;52.30;25.30;;;;;;;-2.30;81.40;98072.98;217905;1257;140984;-67
2023/11/28 15:37:23;;;;;;;52.50;26.80;;;;;;;-2.34;81.52;98075.22;218628;1253;140155;-68
2023/11/28 15:42:28;;;;;;;48.70;20.90;;;;;;;-2.37;81.71;98085.60;218265;1258;140400;-69
2023/11/28 15:47:35;;;;;;;53.20;24.00;;;;;;;-2.42;81.77;98093.43;218321;1253;140126;-68
2023/11/28 15:52:39;;;;;;;61.00;26.80;;;;;;;-2.45;81.87;98097.05;218496;1257;140435;-65
2023/11/28 15:57:47;;;;;;;50.60;25.40;;;;;;;-2.47;81.94;98096.96;220062;1253;140268;-70
2023/11/28 16:03:32;;;;;;;55.80;27.00;;;;;;;-2.49;82.09;98097.18;219842;1254;141037;-69
2023/11/28 16:08:39;;;;;;;52.40;24.20;;;;;;;-2.50;82.06;98100.39;219479;1253;140848;-69
2023/11/28 16:13:43;;;;;;;57.10;25.90;;;;;;;-2.52;82.10;98111.16;218150;1253;139864;-69
2023/11/28 16:18:48;;;;;;;48.00;25.10;;;;;;;-2.58;82.10;98110.48;218554;1254;140638;-69
2023/11/28 16:23:53;;;;;;;51.30;21.20;;;;;;;-2.64;82.07;98119.58;219817;1253;140214;-67
2023/11/28 16:28:57;;;;;;;47.80;25.60;;;;;;;-2.67;82.32;98125.17;220789;1253;140611;-70
2023/11/28 16:34:02;;;;;;;55.90;25.80;;;;;;;-2.69;82.27;98127.94;220689;1254;140855;-71
2023/11/28 16:39:08;;;;;;;52.90;25.60;;;;;;;-2.70;82.24;98133.54;220919;1253;140490;-68
2023/11/28 16:44:12;;;;;;;47.10;23.20;;;;;;;-2.74;82.35;98137.80;220718;1253;140844;-69
2023/11/28 16:49:16;;;;;;;50.30;22.10;;;;;;;-2.78;82.46;98146.79;219436;1254;140520;-69
2023/11/28 16:54:26;;;;;;;52.30;27.40;;;;;;;-2.80;82.55;98152.14;220256;1255;141004;-69
2023/11/28 16:59:31;;;;;;;57.30;27.40;;;;;;;-2.83;82.82;98158.57;218247;1253;140081;-69
2023/11/28 17:04:35;;;;;;;61.10;27.80;;;;;;;-2.88;82.68;98164.73;219620;1253;140127;-69
2023/11/28 17:09:39;;;;;;;51.30;26.50;;;;;;;-2.95;82.88;98169.95;218305;1253;140183;-69
2023/11/28 17:14:43;;;;;;;53.10;24.80;;;;;;;-2.99;82.91;98174.69;218805;1256;140984;-67
2023/11/28 17:19:47;;;;;;;54.50;30.30;;;;;;;-3.03;83.15;98176.86;218664;1253;140188;-67
2023/11/28 17:24:51;;;;;;;57.30;27.60;;;;;;;-3.05;83.39;98184.59;217981;1253;139969;-68
2023/11/28 17:29:56;;;;;;;69.30;26.80;;;;;;;-3.10;83.54;98192.09;218591;1255;141695;-70
2023/11/28 17:35:02;;;;;;;54.50;26.10;;;;;;;-3.14;83.51;98202.48;217954;1256;140133;-66
2023/11/28 17:40:10;;;;;;;45.00;24.20;;;;;;;-3.17;83.68;98202.55;218091;1253;139787;-69
2023/11/28 17:45:15;;;;;;;50.20;25.70;;;;;;;-3.18;83.85;98212.86;218212;1255;141011;-68
2023/11/28 17:50:23;;;;;;;54.10;25.50;;;;;;;-3.18;83.79;98218.30;219500;1258;140688;-69
2023/11/28 17:55:26;;;;;;;48.30;22.00;;;;;;;-3.17;83.98;98223.56;218572;1253;141201;-67
2023/11/28 18:00:30;;;;;;;54.10;22.80;;;;;;;-3.16;84.04;98234.73;219108;1254;140017;-68
2023/11/28 18:05:36;;;;;;;48.30;21.80;;;;;;;-3.16;84.00;98244.47;219037;1253;140437;-70
2023/11/28 18:10:42;;;;;;;47.70;23.90;;;;;;;-3.16;84.10;98255.02;219204;1257;141388;-71
2023/11/28 18:15:51;;;;;;;49.10;25.20;;;;;;;-3.17;83.95;98260.21;218828;1257;141108;-71
2023/11/28 18:20:54;;;;;;;42.40;21.10;;;;;;;-3.16;84.20;98264.60;219861;1258;141474;-72
2023/11/28 18:26:04;;;;;;;38.50;23.50;;;;;;;-3.16;84.14;98266.85;220452;1253;140092;-68
2023/11/28 18:31:11;;;;;;;40.10;20.90;;;;;;;-3.18;84.29;98270.36;219041;1256;140319;-69
2023/11/28 18:36:15;;;;;;;37.80;19.40;;;;;;;-3.18;84.18;98287.77;220900;1254;141994;-70
2023/11/28 18:41:19;;;;;;;56.10;25.20;;;;;;;-3.19;84.30;98296.40;219633;1258;141687;-70
2023/11/28 18:46:24;;;;;;;54.50;26.10;;;;;;;-3.22;84.33;98313.08;218860;1257;140328;-70
2023/11/28 18:51:32;;;;;;;54.20;27.80;;;;;;;-3.25;84.46;98325.59;218950;1254;140061;-70
2023/11/28 18:56:38;;;;;;;47.40;21.60;;;;;;;-3.26;84.66;98333.35;219388;1253;140160;-72
2023/11/28 19:01:42;;;;;;;49.20;22.90;;;;;;;-3.23;84.72;98347.95;217999;1253;140233;-70
2023/11/28 19:06:46;;;;;;;45.80;22.20;;;;;;;-3.26;84.75;98353.16;218082;1253;141673;-70
2023/11/28 19:11:54;;;;;;;46.40;23.40;;;;;;;-3.30;84.69;98362.39;218336;1257;140386;-68
2023/11/28 19:16:58;;;;;;;;;;;;;;;-3.30;84.98;98371.09;217790;1255;140042;-69
2023/11/28 19:22:03;;;;;;;50.50;23.90;;;;;;;-3.33;85.09;98379.09;218194;1253;126803;-70
2023/11/28 19:27:07;;;;;;;37.60;19.60;;;;;;;-3.36;85.04;98388.61;218655;1258;141121;-68
2023/11/28 19:32:15;;;;;;;45.80;20.80;;;;;;;-3.44;84.76;98396.20;218630;1259;139929;-69
2023/11/28 19:37:19;;;;;;;42.90;21.40;;;;;;;-3.53;84.77;98393.94;218657;1258;142351;-68
2023/11/28 19:42:24;;;;;;;42.90;23.30;;;;;;;-3.58;84.97;98396.55;218483;1257;140334;-69
2023/11/28 19:47:28;;;;;;;42.40;20.80;;;;;;;-3.60;84.96;98400.67;218387;1259;140780;-67
2023/11/28 19:52:33;;;;;;;53.80;23.70;;;;;;;-3.68;84.95;98410.06;217857;1258;1330745;-69
2023/11/28 19:57:38;;;;;;;55.10;25.30;;;;;;;-3.75;84.88;98413.15;219263;1257;139926;-69
2023/11/28 20:02:44;;;;;;;54.10;23.80;;;;;;;-3.81;85.03;98416.06;218281;1254;140884;-73
2023/11/28 20:07:49;;;;;;;53.90;23.80;;;;;;;-3.86;85.03;98421.34;218218;1254;140946;-69
2023/11/28 20:12:54;;;;;;;49.10;24.00;;;;;;;-3.86;85.38;98427.77;218479;1259;140204;-66
2023/11/28 20:17:58;;;;;;;59.50;25.50;;;;;;;-3.83;85.54;98435.02;218440;1255;140452;-70
2023/11/28 20:23:02;;;;;;;53.30;22.70;;;;;;;-3.79;85.56;98443.09;219990;1254;140563;-69
2023/11/28 20:28:06;;;;;;;56.50;28.70;;;;;;;-3.73;85.69;98446.88;218747;1257;140901;-68
2023/11/28 20:33:10;;;;;;;55.30;25.10;;;;;;;-3.65;85.51;98454.00;220675;1257;139900;-67
2023/11/28 20:38:18;;;;;;;52.70;22.90;;;;;;;-3.62;85.39;98455.05;219573;1257;139995;-65
2023/11/28 20:43:24;;;;;;;47.00;21.30;;;;;;;-3.61;85.67;98463.54;218181;1257;140130;-67
2023/11/28 20:48:31;;;;;;;47.70;20.60;;;;;;;-3.60;85.53;98464.52;219734;1257;140974;-66
2023/11/28 20:53:40;;;;;;;52.00;21.70;;;;;;;-3.60;85.52;98471.96;219297;1254;140667;-69
2023/11/28 20:58:45;;;;;;;47.10;21.90;;;;;;;-3.60;85.50;98476.13;219640;1254;140058;-67
2023/11/28 21:03:49;;;;;;;56.40;23.50;;;;;;;-3.59;85.57;98480.78;218167;1254;140028;-67
2023/11/28 21:08:54;;;;;;;55.00;24.80;;;;;;;-3.60;85.57;98486.42;218514;1254;140028;-68
2023/11/28 21:13:58;;;;;;;50.40;23.40;;;;;;;-3.61;85.60;98486.04;218302;1257;141047;-68
2023/11/28 21:19:05;;;;;;;56.90;25.80;;;;;;;-3.64;85.59;98485.35;218349;1254;140359;-69
2023/11/28 21:24:10;;;;;;;45.20;20.20;;;;;;;-3.71;85.52;98486.68;219248;1254;141076;-69
2023/11/28 21:29:15;;;;;;;54.60;23.90;;;;;;;-3.80;85.44;98491.98;218274;1254;140306;-68
2023/11/28 21:34:19;;;;;;;38.90;18.60;;;;;;;-3.82;85.45;98497.36;218777;1257;140801;-68
2023/11/28 21:39:24;;;;;;;59.80;23.30;;;;;;;-3.84;85.64;98498.09;219083;1254;140124;-68
2023/11/28 21:44:28;;;;;;;54.80;25.60;;;;;;;-3.81;85.77;98503.73;218513;1254;139920;-69
2023/11/28 21:49:36;;;;;;;49.90;21.10;;;;;;;-3.81;85.86;98509.75;219033;1254;140015;-68
2023/11/28 21:54:41;;;;;;;50.20;23.20;;;;;;;-3.82;85.70;98515.65;218427;1254;140143;-68
2023/11/28 21:59:46;;;;;;;52.20;23.20;;;;;;;-3.88;85.67;98519.30;219313;1254;140713;-65
2023/11/28 22:04:50;;;;;;;46.00;21.10;;;;;;;-3.92;86.01;98520.46;219506;1254;140102;-67
2023/11/28 22:09:56;;;;;;;47.50;20.60;;;;;;;-3.88;86.26;98525.87;218318;1257;140216;-69
2023/11/28 22:15:00;;;;;;;52.40;21.10;;;;;;;-3.84;86.33;98532.98;219390;1254;140037;-68
2023/11/28 22:20:05;;;;;;;46.80;21.80;;;;;;;-3.82;86.22;98532.77;219289;1257;140664;-69
2023/11/28 22:25:13;;;;;;;40.50;19.50;;;;;;;-3.78;86.45;98542.81;219144;1254;140350;-68
2023/11/28 22:30:18;;;;;;;46.10;23.30;;;;;;;-3.76;86.54;98550.39;220254;1254;140566;-69
2023/11/28 22:35:23;;;;;;;32.00;17.50;;;;;;;-3.77;86.35;98557.42;219722;1254;141600;-69
2023/11/28 22:40:28;;;;;;;35.80;17.20;;;;;;;-3.72;86.59;98570.97;219211;1257;140911;-67
2023/11/28 22:45:32;;;;;;;39.90;19.50;;;;;;;-3.68;86.67;98581.98;218285;1257;140063;-69
2023/11/28 22:50:36;;;;;;;38.50;16.60;;;;;;;-3.67;86.75;98588.02;219032;1254;140278;-70
2023/11/28 22:55:40;;;;;;;34.00;17.30;;;;;;;-3.66;86.78;98586.05;218760;1254;140587;-67